sensor_id;sensor_type;location;lat;lon;timestamp;P1;durP1;ratioP1;P2;durP2;ratioP2
37284;SDS011;23172;53.550;9.964;2022-09-13T00:04:31;3.83;;;3.53;;
37284;SDS011;23172;53.550;9.964;2022-09-13T00:09:32;8.50;;;6.30;;
37284;SDS011;23172;53.550;9.964;2022-09-13T00:14:36;5.43;;;4.72;;
37284;SDS011;23172;53.550;9.964;2022-09-13T00:19:37;3.03;;;2.83;;
37284;SDS011;23172;53.550;9.964;2022-09-13T00:24:39;4.55;;;3.60;;
37284;SDS011;23172;53.550;9.964;2022-09-13T00:29:42;5.28;;;4.78;;
37284;SDS011;23172;53.550;9.964;2022-09-13T00:34:45;4.50;;;4.20;;
37284;SDS011;23172;53.550;9.964;2022-09-13T00:39:46;3.72;;;3.13;;
37284;SDS011;23172;53.550;9.964;2022-09-13T00:44:53;3.40;;;3.10;;
37284;SDS011;23172;53.550;9.964;2022-09-13T00:49:58;4.80;;;4.25;;
37284;SDS011;23172;53.550;9.964;2022-09-13T00:55:07;6.07;;;4.78;;
37284;SDS011;23172;53.550;9.964;2022-09-13T01:00:15;5.00;;;4.60;;
37284;SDS011;23172;53.550;9.964;2022-09-13T01:05:20;5.18;;;4.00;;
37284;SDS011;23172;53.550;9.964;2022-09-13T01:10:26;5.10;;;4.60;;
37284;SDS011;23172;53.550;9.964;2022-09-13T01:15:32;7.30;;;5.75;;
37284;SDS011;23172;53.550;9.964;2022-09-13T01:20:37;5.55;;;5.05;;
37284;SDS011;23172;53.550;9.964;2022-09-13T01:26:00;6.65;;;5.90;;
37284;SDS011;23172;53.550;9.964;2022-09-13T01:31:28;4.25;;;3.92;;
37284;SDS011;23172;53.550;9.964;2022-09-13T01:36:42;4.60;;;4.20;;
37284;SDS011;23172;53.550;9.964;2022-09-13T01:41:58;5.55;;;5.00;;
37284;SDS011;23172;53.550;9.964;2022-09-13T01:47:09;5.50;;;5.00;;
37284;SDS011;23172;53.550;9.964;2022-09-13T01:52:23;4.03;;;3.63;;
37284;SDS011;23172;53.550;9.964;2022-09-13T01:57:30;4.72;;;3.83;;
37284;SDS011;23172;53.550;9.964;2022-09-13T02:02:38;6.82;;;5.68;;
37284;SDS011;23172;53.550;9.964;2022-09-13T02:07:44;5.15;;;4.00;;
37284;SDS011;23172;53.550;9.964;2022-09-13T02:12:52;5.13;;;4.63;;
37284;SDS011;23172;53.550;9.964;2022-09-13T02:17:59;6.57;;;5.93;;
37284;SDS011;23172;53.550;9.964;2022-09-13T02:23:08;5.63;;;5.05;;
37284;SDS011;23172;53.550;9.964;2022-09-13T02:28:13;6.28;;;5.68;;
37284;SDS011;23172;53.550;9.964;2022-09-13T02:33:21;6.25;;;5.72;;
37284;SDS011;23172;53.550;9.964;2022-09-13T02:38:29;4.68;;;4.28;;
37284;SDS011;23172;53.550;9.964;2022-09-13T02:43:34;5.97;;;5.38;;
37284;SDS011;23172;53.550;9.964;2022-09-13T02:48:46;6.40;;;5.80;;
37284;SDS011;23172;53.550;9.964;2022-09-13T02:53:54;5.25;;;4.75;;
37284;SDS011;23172;53.550;9.964;2022-09-13T02:59:08;4.90;;;4.45;;
37284;SDS011;23172;53.550;9.964;2022-09-13T03:04:16;5.20;;;4.68;;
37284;SDS011;23172;53.550;9.964;2022-09-13T03:09:18;5.40;;;4.93;;
37284;SDS011;23172;53.550;9.964;2022-09-13T03:14:24;5.57;;;5.07;;
37284;SDS011;23172;53.550;9.964;2022-09-13T03:19:39;8.73;;;7.82;;
37284;SDS011;23172;53.550;9.964;2022-09-13T03:24:59;7.78;;;7.03;;
37284;SDS011;23172;53.550;9.964;2022-09-13T03:30:09;5.65;;;5.15;;
37284;SDS011;23172;53.550;9.964;2022-09-13T03:35:16;9.90;;;8.93;;
37284;SDS011;23172;53.550;9.964;2022-09-13T03:40:27;7.00;;;5.93;;
37284;SDS011;23172;53.550;9.964;2022-09-13T03:45:39;10.65;;;9.38;;
37284;SDS011;23172;53.550;9.964;2022-09-13T03:50:46;10.93;;;9.82;;
37284;SDS011;23172;53.550;9.964;2022-09-13T03:55:48;8.48;;;7.65;;
37284;SDS011;23172;53.550;9.964;2022-09-13T04:00:51;12.30;;;10.55;;
37284;SDS011;23172;53.550;9.964;2022-09-13T04:05:55;13.82;;;12.43;;
37284;SDS011;23172;53.550;9.964;2022-09-13T04:10:56;8.55;;;7.65;;
37284;SDS011;23172;53.550;9.964;2022-09-13T04:15:59;10.38;;;8.38;;
37284;SDS011;23172;53.550;9.964;2022-09-13T04:21:02;12.25;;;10.98;;
37284;SDS011;23172;53.550;9.964;2022-09-13T04:26:04;10.13;;;9.13;;
37284;SDS011;23172;53.550;9.964;2022-09-13T04:31:06;13.05;;;11.55;;
37284;SDS011;23172;53.550;9.964;2022-09-13T04:36:09;14.52;;;13.02;;
37284;SDS011;23172;53.550;9.964;2022-09-13T04:41:11;14.55;;;13.00;;
37284;SDS011;23172;53.550;9.964;2022-09-13T04:46:13;16.85;;;13.18;;
37284;SDS011;23172;53.550;9.964;2022-09-13T04:51:16;9.98;;;8.85;;
37284;SDS011;23172;53.550;9.964;2022-09-13T04:56:17;11.13;;;9.68;;
37284;SDS011;23172;53.550;9.964;2022-09-13T05:01:20;15.20;;;13.02;;
37284;SDS011;23172;53.550;9.964;2022-09-13T05:06:24;16.00;;;14.18;;
37284;SDS011;23172;53.550;9.964;2022-09-13T05:11:27;16.58;;;14.02;;
37284;SDS011;23172;53.550;9.964;2022-09-13T05:16:30;16.38;;;13.48;;
37284;SDS011;23172;53.550;9.964;2022-09-13T05:21:33;18.43;;;16.53;;
37284;SDS011;23172;53.550;9.964;2022-09-13T05:26:35;19.48;;;17.48;;
37284;SDS011;23172;53.550;9.964;2022-09-13T05:31:38;18.60;;;16.80;;
37284;SDS011;23172;53.550;9.964;2022-09-13T05:36:42;13.05;;;11.68;;
37284;SDS011;23172;53.550;9.964;2022-09-13T05:41:44;13.63;;;11.85;;
37284;SDS011;23172;53.550;9.964;2022-09-13T05:46:46;14.82;;;13.02;;
37284;SDS011;23172;53.550;9.964;2022-09-13T05:51:49;17.23;;;14.57;;
37284;SDS011;23172;53.550;9.964;2022-09-13T05:56:51;17.47;;;15.77;;
37284;SDS011;23172;53.550;9.964;2022-09-13T06:01:56;16.10;;;14.25;;
37284;SDS011;23172;53.550;9.964;2022-09-13T06:06:59;21.00;;;15.93;;
37284;SDS011;23172;53.550;9.964;2022-09-13T06:12:01;20.43;;;18.43;;
37284;SDS011;23172;53.550;9.964;2022-09-13T06:17:04;18.10;;;15.95;;
37284;SDS011;23172;53.550;9.964;2022-09-13T08:43:10;7.40;;;3.05;;
37284;SDS011;23172;53.550;9.964;2022-09-13T08:48:19;5.55;;;2.60;;
37284;SDS011;23172;53.550;9.964;2022-09-13T08:53:34;3.20;;;1.58;;
37284;SDS011;23172;53.550;9.964;2022-09-13T08:58:45;3.05;;;1.73;;
37284;SDS011;23172;53.550;9.964;2022-09-13T09:03:57;4.05;;;3.40;;
37284;SDS011;23172;53.550;9.964;2022-09-13T09:09:07;5.78;;;2.90;;
37284;SDS011;23172;53.550;9.964;2022-09-13T09:14:14;6.72;;;3.60;;
37284;SDS011;23172;53.550;9.964;2022-09-13T09:19:23;4.95;;;2.45;;
37284;SDS011;23172;53.550;9.964;2022-09-13T09:24:35;8.63;;;3.08;;
37284;SDS011;23172;53.550;9.964;2022-09-13T09:29:37;11.20;;;3.38;;
37284;SDS011;23172;53.550;9.964;2022-09-13T09:34:46;7.05;;;3.47;;
37284;SDS011;23172;53.550;9.964;2022-09-13T09:39:58;6.72;;;3.22;;
37284;SDS011;23172;53.550;9.964;2022-09-13T09:45:03;5.35;;;2.47;;
37284;SDS011;23172;53.550;9.964;2022-09-13T09:50:29;6.65;;;3.53;;
37284;SDS011;23172;53.550;9.964;2022-09-13T09:55:39;12.20;;;4.55;;
37284;SDS011;23172;53.550;9.964;2022-09-13T10:00:49;5.05;;;3.30;;
37284;SDS011;23172;53.550;9.964;2022-09-13T10:06:02;7.57;;;3.22;;
37284;SDS011;23172;53.550;9.964;2022-09-13T10:11:07;13.15;;;4.63;;
37284;SDS011;23172;53.550;9.964;2022-09-13T10:16:20;14.20;;;7.00;;
37284;SDS011;23172;53.550;9.964;2022-09-13T10:21:25;19.65;;;6.47;;
37284;SDS011;23172;53.550;9.964;2022-09-13T10:26:29;12.98;;;6.25;;
37284;SDS011;23172;53.550;9.964;2022-09-13T10:31:36;22.95;;;8.23;;
37284;SDS011;23172;53.550;9.964;2022-09-13T10:36:42;16.60;;;8.23;;
37284;SDS011;23172;53.550;9.964;2022-09-13T10:41:53;17.58;;;8.35;;
37284;SDS011;23172;53.550;9.964;2022-09-13T10:46:58;32.65;;;10.65;;
37284;SDS011;23172;53.550;9.964;2022-09-13T10:57:35;25.60;;;10.85;;
37284;SDS011;23172;53.550;9.964;2022-09-13T11:02:47;18.20;;;7.40;;
37284;SDS011;23172;53.550;9.964;2022-09-13T11:08:20;22.67;;;12.25;;
37284;SDS011;23172;53.550;9.964;2022-09-13T11:13:52;30.05;;;12.48;;
37284;SDS011;23172;53.550;9.964;2022-09-13T11:19:17;20.10;;;8.63;;
37284;SDS011;23172;53.550;9.964;2022-09-13T11:24:39;20.83;;;10.80;;
37284;SDS011;23172;53.550;9.964;2022-09-13T11:30:02;20.38;;;10.63;;
37284;SDS011;23172;53.550;9.964;2022-09-13T11:35:19;13.35;;;11.43;;
37284;SDS011;23172;53.550;9.964;2022-09-13T11:40:41;28.38;;;16.50;;
37284;SDS011;23172;53.550;9.964;2022-09-13T11:45:53;32.97;;;16.40;;
37284;SDS011;23172;53.550;9.964;2022-09-13T11:51:03;27.00;;;17.17;;
37284;SDS011;23172;53.550;9.964;2022-09-13T11:56:15;39.35;;;21.83;;
37284;SDS011;23172;53.550;9.964;2022-09-13T12:01:25;58.83;;;21.73;;
37284;SDS011;23172;53.550;9.964;2022-09-13T12:06:33;34.00;;;17.85;;
37284;SDS011;23172;53.550;9.964;2022-09-13T12:11:40;28.10;;;14.45;;
37284;SDS011;23172;53.550;9.964;2022-09-13T12:16:47;25.63;;;10.90;;
37284;SDS011;23172;53.550;9.964;2022-09-13T12:21:52;27.58;;;13.25;;
37284;SDS011;23172;53.550;9.964;2022-09-13T12:26:58;31.95;;;15.35;;
37284;SDS011;23172;53.550;9.964;2022-09-13T12:32:05;26.08;;;10.68;;
37284;SDS011;23172;53.550;9.964;2022-09-13T12:37:15;29.95;;;12.80;;
37284;SDS011;23172;53.550;9.964;2022-09-13T12:42:45;18.55;;;10.20;;
37284;SDS011;23172;53.550;9.964;2022-09-13T12:48:09;26.67;;;9.85;;
37284;SDS011;23172;53.550;9.964;2022-09-13T12:53:31;19.00;;;8.95;;
37284;SDS011;23172;53.550;9.964;2022-09-13T12:59:24;17.40;;;6.95;;
37284;SDS011;23172;53.550;9.964;2022-09-13T13:04:37;11.20;;;5.78;;
37284;SDS011;23172;53.550;9.964;2022-09-13T13:09:41;21.23;;;8.95;;
37284;SDS011;23172;53.550;9.964;2022-09-13T13:14:46;23.75;;;8.88;;
37284;SDS011;23172;53.550;9.964;2022-09-13T13:19:53;18.33;;;7.30;;
37284;SDS011;23172;53.550;9.964;2022-09-13T13:24:55;10.90;;;5.68;;
37284;SDS011;23172;53.550;9.964;2022-09-13T13:35:33;23.50;;;11.27;;
37284;SDS011;23172;53.550;9.964;2022-09-13T13:40:35;30.38;;;11.95;;
37284;SDS011;23172;53.550;9.964;2022-09-13T13:45:37;20.83;;;11.82;;
37284;SDS011;23172;53.550;9.964;2022-09-13T13:51:13;13.38;;;6.18;;
37284;SDS011;23172;53.550;9.964;2022-09-13T14:01:49;8.80;;;3.80;;
37284;SDS011;23172;53.550;9.964;2022-09-13T14:06:57;5.88;;;3.38;;
37284;SDS011;23172;53.550;9.964;2022-09-13T14:12:17;7.75;;;4.50;;
37284;SDS011;23172;53.550;9.964;2022-09-13T14:17:32;21.33;;;5.10;;
37284;SDS011;23172;53.550;9.964;2022-09-13T14:23:14;9.55;;;3.65;;
37284;SDS011;23172;53.550;9.964;2022-09-13T14:28:18;9.98;;;4.22;;
37284;SDS011;23172;53.550;9.964;2022-09-13T14:33:24;5.57;;;2.92;;
37284;SDS011;23172;53.550;9.964;2022-09-13T14:38:32;5.65;;;4.28;;
37284;SDS011;23172;53.550;9.964;2022-09-13T14:43:35;5.53;;;2.78;;
37284;SDS011;23172;53.550;9.964;2022-09-13T14:48:38;14.73;;;4.03;;
37284;SDS011;23172;53.550;9.964;2022-09-13T14:53:49;9.18;;;4.82;;
37284;SDS011;23172;53.550;9.964;2022-09-13T14:58:53;6.32;;;4.03;;
37284;SDS011;23172;53.550;9.964;2022-09-13T15:03:58;7.95;;;3.80;;
37284;SDS011;23172;53.550;9.964;2022-09-13T15:09:14;7.07;;;3.72;;
37284;SDS011;23172;53.550;9.964;2022-09-13T15:14:26;8.70;;;4.03;;
37284;SDS011;23172;53.550;9.964;2022-09-13T15:19:35;7.03;;;3.38;;
37284;SDS011;23172;53.550;9.964;2022-09-13T15:24:42;9.88;;;4.05;;
37284;SDS011;23172;53.550;9.964;2022-09-13T15:29:47;8.38;;;3.42;;
37284;SDS011;23172;53.550;9.964;2022-09-13T15:34:50;9.07;;;4.47;;
37284;SDS011;23172;53.550;9.964;2022-09-13T15:40:05;12.82;;;4.00;;
37284;SDS011;23172;53.550;9.964;2022-09-13T15:45:15;5.55;;;2.97;;
37284;SDS011;23172;53.550;9.964;2022-09-13T15:50:22;12.65;;;4.97;;
37284;SDS011;23172;53.550;9.964;2022-09-13T15:55:27;7.28;;;2.83;;
37284;SDS011;23172;53.550;9.964;2022-09-13T16:00:30;12.07;;;3.60;;
37284;SDS011;23172;53.550;9.964;2022-09-13T16:05:32;7.30;;;3.17;;
37284;SDS011;23172;53.550;9.964;2022-09-13T16:10:36;6.53;;;3.20;;
37284;SDS011;23172;53.550;9.964;2022-09-13T16:15:38;8.50;;;3.45;;
37284;SDS011;23172;53.550;9.964;2022-09-13T16:20:40;5.15;;;2.22;;
37284;SDS011;23172;53.550;9.964;2022-09-13T16:25:43;8.63;;;3.53;;
37284;SDS011;23172;53.550;9.964;2022-09-13T16:30:46;9.68;;;3.05;;
37284;SDS011;23172;53.550;9.964;2022-09-13T16:35:48;9.00;;;4.25;;
37284;SDS011;23172;53.550;9.964;2022-09-13T16:40:51;15.68;;;6.35;;
37284;SDS011;23172;53.550;9.964;2022-09-13T16:45:53;8.32;;;3.00;;
37284;SDS011;23172;53.550;9.964;2022-09-13T16:51:02;7.03;;;3.00;;
37284;SDS011;23172;53.550;9.964;2022-09-13T16:56:10;3.15;;;2.70;;
37284;SDS011;23172;53.550;9.964;2022-09-13T17:01:21;9.85;;;4.80;;
37284;SDS011;23172;53.550;9.964;2022-09-13T17:06:27;4.38;;;2.70;;
37284;SDS011;23172;53.550;9.964;2022-09-13T17:11:32;5.00;;;2.60;;
37284;SDS011;23172;53.550;9.964;2022-09-13T17:16:40;4.07;;;2.15;;
37284;SDS011;23172;53.550;9.964;2022-09-13T17:21:48;6.00;;;4.18;;
37284;SDS011;23172;53.550;9.964;2022-09-13T17:26:57;4.90;;;2.28;;
37284;SDS011;23172;53.550;9.964;2022-09-13T17:32:00;6.90;;;3.28;;
37284;SDS011;23172;53.550;9.964;2022-09-13T17:37:03;3.13;;;1.98;;
37284;SDS011;23172;53.550;9.964;2022-09-13T17:42:07;4.28;;;2.53;;
37284;SDS011;23172;53.550;9.964;2022-09-13T17:47:09;6.70;;;2.55;;
37284;SDS011;23172;53.550;9.964;2022-09-13T17:52:10;4.93;;;3.00;;
37284;SDS011;23172;53.550;9.964;2022-09-13T17:57:14;6.70;;;3.88;;
37284;SDS011;23172;53.550;9.964;2022-09-13T18:02:16;5.90;;;3.75;;
37284;SDS011;23172;53.550;9.964;2022-09-13T18:07:18;5.47;;;2.33;;
37284;SDS011;23172;53.550;9.964;2022-09-13T18:12:21;9.45;;;6.20;;
37284;SDS011;23172;53.550;9.964;2022-09-13T18:17:23;11.82;;;3.97;;
37284;SDS011;23172;53.550;9.964;2022-09-13T18:22:25;8.40;;;4.22;;
37284;SDS011;23172;53.550;9.964;2022-09-13T18:27:29;3.75;;;2.92;;
37284;SDS011;23172;53.550;9.964;2022-09-13T18:32:32;4.28;;;2.63;;
37284;SDS011;23172;53.550;9.964;2022-09-13T18:37:34;4.70;;;2.33;;
37284;SDS011;23172;53.550;9.964;2022-09-13T18:42:37;8.13;;;3.72;;
37284;SDS011;23172;53.550;9.964;2022-09-13T18:47:38;5.13;;;3.38;;
37284;SDS011;23172;53.550;9.964;2022-09-13T18:52:40;8.43;;;3.25;;
37284;SDS011;23172;53.550;9.964;2022-09-13T18:57:45;6.65;;;3.40;;
37284;SDS011;23172;53.550;9.964;2022-09-13T19:02:53;4.47;;;2.83;;
37284;SDS011;23172;53.550;9.964;2022-09-13T19:07:55;5.47;;;2.53;;
37284;SDS011;23172;53.550;9.964;2022-09-13T19:13:01;5.90;;;3.70;;
37284;SDS011;23172;53.550;9.964;2022-09-13T19:18:06;8.35;;;3.00;;
37284;SDS011;23172;53.550;9.964;2022-09-13T19:23:08;6.05;;;4.05;;
37284;SDS011;23172;53.550;9.964;2022-09-13T19:28:12;6.32;;;3.92;;
37284;SDS011;23172;53.550;9.964;2022-09-13T19:33:13;13.68;;;4.72;;
37284;SDS011;23172;53.550;9.964;2022-09-13T19:38:16;6.93;;;4.63;;
37284;SDS011;23172;53.550;9.964;2022-09-13T19:43:19;5.85;;;3.45;;
37284;SDS011;23172;53.550;9.964;2022-09-13T19:48:21;3.53;;;2.63;;
37284;SDS011;23172;53.550;9.964;2022-09-13T19:53:23;6.55;;;3.30;;
37284;SDS011;23172;53.550;9.964;2022-09-13T19:58:27;5.45;;;3.65;;
37284;SDS011;23172;53.550;9.964;2022-09-13T20:03:29;6.60;;;2.60;;
37284;SDS011;23172;53.550;9.964;2022-09-13T20:08:32;5.35;;;2.95;;
37284;SDS011;23172;53.550;9.964;2022-09-13T20:13:35;5.70;;;3.75;;
37284;SDS011;23172;53.550;9.964;2022-09-13T20:18:38;8.48;;;4.47;;
37284;SDS011;23172;53.550;9.964;2022-09-13T20:23:40;6.85;;;3.17;;
37284;SDS011;23172;53.550;9.964;2022-09-13T20:28:44;6.30;;;3.25;;
37284;SDS011;23172;53.550;9.964;2022-09-13T20:33:47;4.18;;;2.17;;
37284;SDS011;23172;53.550;9.964;2022-09-13T20:38:49;3.70;;;2.17;;
37284;SDS011;23172;53.550;9.964;2022-09-13T20:43:53;3.75;;;2.70;;
37284;SDS011;23172;53.550;9.964;2022-09-13T20:48:58;5.55;;;1.98;;
37284;SDS011;23172;53.550;9.964;2022-09-13T20:54:00;3.47;;;2.03;;
37284;SDS011;23172;53.550;9.964;2022-09-13T20:59:04;3.70;;;1.13;;
37284;SDS011;23172;53.550;9.964;2022-09-13T21:04:06;10.00;;;4.72;;
37284;SDS011;23172;53.550;9.964;2022-09-13T21:09:08;4.40;;;2.33;;
37284;SDS011;23172;53.550;9.964;2022-09-13T21:14:13;3.28;;;1.73;;
37284;SDS011;23172;53.550;9.964;2022-09-13T21:19:15;5.05;;;2.15;;
37284;SDS011;23172;53.550;9.964;2022-09-13T21:24:17;10.60;;;4.90;;
37284;SDS011;23172;53.550;9.964;2022-09-13T21:29:21;6.55;;;3.78;;
37284;SDS011;23172;53.550;9.964;2022-09-13T21:34:23;4.40;;;3.47;;
37284;SDS011;23172;53.550;9.964;2022-09-13T21:39:26;6.60;;;3.60;;
37284;SDS011;23172;53.550;9.964;2022-09-13T21:44:30;6.68;;;4.00;;
37284;SDS011;23172;53.550;9.964;2022-09-13T21:49:32;7.47;;;4.22;;
37284;SDS011;23172;53.550;9.964;2022-09-13T21:54:33;4.72;;;1.77;;
37284;SDS011;23172;53.550;9.964;2022-09-13T21:59:37;5.18;;;4.30;;
37284;SDS011;23172;53.550;9.964;2022-09-13T22:04:38;6.97;;;3.05;;
37284;SDS011;23172;53.550;9.964;2022-09-13T22:09:40;4.70;;;2.95;;
37284;SDS011;23172;53.550;9.964;2022-09-13T22:14:43;5.38;;;2.05;;
37284;SDS011;23172;53.550;9.964;2022-09-13T22:19:46;2.35;;;1.73;;
37284;SDS011;23172;53.550;9.964;2022-09-13T22:24:48;4.05;;;2.78;;
37284;SDS011;23172;53.550;9.964;2022-09-13T22:29:51;6.40;;;2.40;;
37284;SDS011;23172;53.550;9.964;2022-09-13T22:34:53;7.32;;;2.85;;
37284;SDS011;23172;53.550;9.964;2022-09-13T22:39:57;5.03;;;1.88;;
37284;SDS011;23172;53.550;9.964;2022-09-13T22:45:00;3.20;;;1.70;;
37284;SDS011;23172;53.550;9.964;2022-09-13T22:50:02;4.68;;;1.33;;
37284;SDS011;23172;53.550;9.964;2022-09-13T22:55:04;2.85;;;1.40;;
37284;SDS011;23172;53.550;9.964;2022-09-13T23:00:09;2.60;;;1.33;;
37284;SDS011;23172;53.550;9.964;2022-09-13T23:05:12;2.72;;;1.50;;
37284;SDS011;23172;53.550;9.964;2022-09-13T23:10:14;3.97;;;1.77;;
37284;SDS011;23172;53.550;9.964;2022-09-13T23:15:17;2.72;;;1.63;;
37284;SDS011;23172;53.550;9.964;2022-09-13T23:20:19;4.03;;;2.33;;
37284;SDS011;23172;53.550;9.964;2022-09-13T23:25:21;2.97;;;1.60;;
37284;SDS011;23172;53.550;9.964;2022-09-13T23:30:24;6.15;;;2.30;;
37284;SDS011;23172;53.550;9.964;2022-09-13T23:35:26;3.80;;;2.05;;
37284;SDS011;23172;53.550;9.964;2022-09-13T23:40:28;2.22;;;1.30;;
37284;SDS011;23172;53.550;9.964;2022-09-13T23:45:32;4.10;;;1.70;;
37284;SDS011;23172;53.550;9.964;2022-09-13T23:50:34;2.13;;;1.50;;
37284;SDS011;23172;53.550;9.964;2022-09-13T23:55:35;4.00;;;1.73;;
